createdAt,value
2018-09-18T00:01:30.723Z,4.23
2018-09-18T00:03:58.535Z,4.73
2018-09-18T00:06:26.227Z,3.13
2018-09-18T00:08:53.900Z,6.03
2018-09-18T00:11:21.657Z,2.33
2018-09-18T00:13:49.335Z,1.93
2018-09-18T00:16:17.039Z,2.03
2018-09-18T00:18:45.096Z,5.60
2018-09-18T00:21:13.028Z,3.13
2018-09-18T00:23:40.705Z,3.23
2018-09-18T00:26:08.427Z,1.53
2018-09-18T00:28:36.096Z,3.13
2018-09-18T00:31:04.006Z,3.50
2018-09-18T00:33:31.688Z,4.63
2018-09-18T00:35:59.379Z,1.63
2018-09-18T00:38:27.079Z,2.63
2018-09-18T00:40:54.770Z,2.63
2018-09-18T00:43:22.509Z,4.37
2018-09-18T00:45:50.268Z,2.20
2018-09-18T00:48:17.937Z,4.60
2018-09-18T00:50:45.703Z,4.20
2018-09-18T00:53:13.376Z,2.87
2018-09-18T00:55:41.071Z,5.00
2018-09-18T00:58:08.792Z,3.03
2018-09-18T01:00:36.491Z,3.17
2018-09-18T01:03:04.183Z,1.83
2018-09-18T01:05:31.959Z,2.70
2018-09-18T01:07:59.623Z,4.37
2018-09-18T01:10:27.468Z,1.20
2018-09-18T01:12:55.187Z,1.83
2018-09-18T01:15:22.953Z,1.93
2018-09-18T01:17:50.700Z,1.63
2018-09-18T01:20:18.375Z,4.87
2018-09-18T01:22:46.072Z,1.70
2018-09-18T01:25:13.776Z,2.53
2018-09-18T01:27:41.495Z,2.43
2018-09-18T01:30:09.289Z,0.93
2018-09-18T01:32:36.953Z,3.13
2018-09-18T01:35:04.685Z,2.00
2018-09-18T01:37:32.387Z,2.53
2018-09-18T01:40:00.096Z,1.67
2018-09-18T01:42:27.789Z,3.27
2018-09-18T01:44:55.489Z,4.53
2018-09-18T01:47:23.199Z,3.03
2018-09-18T01:49:50.905Z,3.10
2018-09-18T01:52:18.636Z,1.67
2018-09-18T01:54:46.329Z,4.33
2018-09-18T01:57:14.119Z,3.23
2018-09-18T01:59:41.892Z,1.67
2018-09-18T02:02:09.575Z,3.40
2018-09-18T02:04:37.336Z,4.73
2018-09-18T02:07:05.054Z,4.17
2018-09-18T02:09:32.740Z,2.13
2018-09-18T02:12:00.446Z,2.13
2018-09-18T02:14:28.168Z,1.27
2018-09-18T02:16:55.876Z,1.10
2018-09-18T02:19:23.563Z,3.27
2018-09-18T02:21:51.295Z,5.63
2018-09-18T02:24:18.987Z,4.13
2018-09-18T02:26:46.680Z,4.80
2018-09-18T02:29:14.416Z,3.13
2018-09-18T02:31:42.142Z,4.83
2018-09-18T02:34:09.851Z,3.10
2018-09-18T02:36:37.531Z,6.00
2018-09-18T02:39:08.528Z,5.73
2018-09-18T02:41:36.323Z,3.90
2018-09-18T02:44:04.022Z,3.63
2018-09-18T02:46:31.800Z,3.53
2018-09-18T02:48:59.460Z,4.17
2018-09-18T02:51:27.172Z,1.97
2018-09-18T02:53:54.855Z,4.60
2018-09-18T02:56:22.519Z,2.77
2018-09-18T02:58:50.241Z,3.63
2018-09-18T03:01:17.922Z,2.17
2018-09-18T03:03:45.880Z,3.07
2018-09-18T03:06:13.583Z,1.93
2018-09-18T03:08:41.268Z,2.47
2018-09-18T03:11:09.028Z,4.70
2018-09-18T03:13:36.724Z,3.07
2018-09-18T03:16:04.460Z,4.03
2018-09-18T03:18:32.148Z,4.40
2018-09-18T03:20:59.921Z,2.40
2018-09-18T03:23:27.627Z,4.80
2018-09-18T03:25:55.348Z,3.40
2018-09-18T03:28:23.074Z,2.50
2018-09-18T03:30:50.862Z,7.37
2018-09-18T03:33:18.584Z,1.10
2018-09-18T03:35:46.325Z,3.20
2018-09-18T03:38:14.036Z,3.57
2018-09-18T03:40:41.709Z,4.47
2018-09-18T03:43:09.471Z,1.90
2018-09-18T03:45:37.205Z,2.03
2018-09-18T03:48:04.911Z,1.97
2018-09-18T03:50:32.623Z,1.20
2018-09-18T03:53:00.392Z,4.27
2018-09-18T03:55:28.066Z,2.97
2018-09-18T03:57:55.769Z,1.20
2018-09-18T04:00:23.504Z,5.27
2018-09-18T04:02:51.457Z,2.70
2018-09-18T04:05:19.168Z,2.77
2018-09-18T04:07:46.888Z,0.80
2018-09-18T04:10:14.782Z,3.73
2018-09-18T04:12:42.834Z,3.63
2018-09-18T04:15:10.542Z,1.00
2018-09-18T04:17:38.380Z,2.77
2018-09-18T04:20:06.260Z,0.67
2018-09-18T04:22:33.968Z,3.80
2018-09-18T04:25:01.672Z,4.07
2018-09-18T04:27:29.404Z,2.80
2018-09-18T04:29:57.099Z,4.23
2018-09-18T04:32:24.790Z,4.00
2018-09-18T04:34:52.543Z,5.27
2018-09-18T04:37:20.224Z,7.20
2018-09-18T04:39:47.987Z,0.90
2018-09-18T04:42:15.701Z,1.53
2018-09-18T04:44:43.375Z,6.73
2018-09-18T04:47:11.107Z,2.77
2018-09-18T04:49:38.777Z,2.53
2018-09-18T04:52:06.485Z,1.90
2018-09-18T04:54:34.152Z,2.23
2018-09-18T04:57:01.922Z,7.30
2018-09-18T04:59:29.624Z,3.97
2018-09-18T05:01:57.441Z,5.23
2018-09-18T05:04:25.219Z,4.10
2018-09-18T05:06:52.940Z,2.00
2018-09-18T05:09:20.691Z,2.13
2018-09-18T05:11:48.373Z,4.83
2018-09-18T05:14:16.087Z,3.20
2018-09-18T05:16:43.785Z,2.37
2018-09-18T05:19:11.494Z,3.93
2018-09-18T05:21:39.180Z,2.37
2018-09-18T05:24:06.899Z,3.47
2018-09-18T05:26:34.604Z,2.10
2018-09-18T05:29:02.324Z,3.43
2018-09-18T05:31:30.060Z,1.60
2018-09-18T05:33:57.731Z,0.77
2018-09-18T05:36:25.432Z,5.47
2018-09-18T05:38:53.123Z,2.03
2018-09-18T05:41:20.835Z,1.80
2018-09-18T05:43:48.517Z,10.57
2018-09-18T05:46:16.304Z,3.03
2018-09-18T05:48:44.011Z,1.53
2018-09-18T05:51:11.683Z,5.00
2018-09-18T05:53:39.360Z,6.10
2018-09-18T05:56:07.120Z,1.43
2018-09-18T05:58:34.812Z,2.70
2018-09-18T06:01:02.564Z,12.10
2018-09-18T06:03:30.236Z,1.57
2018-09-18T06:05:57.967Z,1.70
2018-09-18T06:08:25.663Z,2.60
2018-09-18T06:10:54.007Z,3.07
2018-09-18T06:13:21.708Z,1.23
2018-09-18T06:15:49.409Z,1.73
2018-09-18T06:18:17.076Z,2.47
2018-09-18T06:20:44.780Z,2.80
2018-09-18T06:23:12.490Z,3.57
2018-09-18T06:25:40.200Z,0.83
2018-09-18T06:28:07.888Z,3.63
2018-09-18T06:30:35.612Z,0.90
2018-09-18T06:33:03.385Z,3.70
2018-09-18T06:35:31.088Z,1.27
2018-09-18T06:37:58.827Z,5.83
2018-09-18T06:40:26.513Z,2.37
2018-09-18T06:42:54.206Z,3.43
2018-09-18T06:45:21.920Z,1.47
2018-09-18T06:47:49.702Z,2.63
2018-09-18T06:50:17.411Z,4.27
2018-09-18T06:52:45.100Z,1.83
2018-09-18T06:55:12.812Z,2.60
2018-09-18T06:57:40.687Z,1.80
2018-09-18T07:00:08.462Z,0.93
2018-09-18T07:02:36.231Z,1.03
2018-09-18T07:05:04.052Z,2.43
2018-09-18T07:07:31.767Z,2.43
2018-09-18T07:09:59.472Z,2.70
2018-09-18T07:12:27.210Z,1.80
2018-09-18T07:14:54.915Z,4.13
2018-09-18T07:17:22.642Z,2.03
2018-09-18T07:19:50.492Z,1.33
2018-09-18T07:22:18.223Z,1.53
2018-09-18T07:24:46.001Z,2.53
2018-09-18T07:27:13.783Z,1.40
2018-09-18T07:29:41.488Z,3.80
2018-09-18T07:32:09.200Z,2.17
2018-09-18T07:34:36.954Z,3.20
2018-09-18T07:37:04.710Z,0.97
2018-09-18T07:39:32.438Z,1.00
2018-09-18T07:42:00.258Z,2.03
2018-09-18T07:44:28.036Z,1.93
2018-09-18T07:46:55.790Z,2.53
2018-09-18T07:49:23.521Z,2.97
2018-09-18T07:51:51.528Z,1.70
2018-09-18T07:54:19.280Z,2.30
2018-09-18T07:56:47.043Z,2.33
2018-09-18T07:59:14.852Z,2.87
2018-09-18T08:01:42.608Z,3.17
2018-09-18T08:04:10.375Z,1.80
2018-09-18T08:06:38.161Z,1.23
2018-09-18T08:09:08.566Z,1.47
2018-09-18T08:11:36.425Z,1.57
2018-09-18T08:14:04.344Z,1.13
2018-09-18T08:16:32.057Z,1.03
2018-09-18T08:18:59.889Z,1.67
2018-09-18T08:21:27.586Z,1.40
2018-09-18T08:23:55.303Z,4.90
2018-09-18T08:26:23.093Z,2.17
2018-09-18T08:28:50.837Z,2.70
2018-09-18T08:31:18.586Z,1.60
2018-09-18T08:33:46.368Z,3.10
2018-09-18T08:36:14.128Z,1.00
2018-09-18T08:38:42.741Z,1.70
2018-09-18T08:41:10.460Z,1.93
2018-09-18T08:43:38.204Z,2.13
2018-09-18T08:46:05.980Z,3.13
2018-09-18T08:48:33.689Z,3.27
2018-09-18T08:51:01.824Z,5.00
2018-09-18T08:53:30.589Z,2.37
2018-09-18T08:55:58.327Z,2.07
2018-09-18T08:58:26.036Z,1.57
2018-09-18T09:00:53.800Z,2.77
2018-09-18T09:03:21.562Z,2.20
2018-09-18T09:05:49.297Z,2.93
2018-09-18T09:08:17.213Z,2.87
2018-09-18T09:10:44.888Z,2.03
2018-09-18T09:13:12.628Z,2.23
2018-09-18T09:15:40.463Z,1.93
2018-09-18T09:18:08.402Z,4.50
2018-09-18T09:20:35.998Z,4.30
2018-09-18T09:23:03.817Z,4.43
2018-09-18T09:25:31.593Z,3.73
2018-09-18T09:27:59.291Z,2.00
2018-09-18T09:30:26.990Z,4.20
2018-09-18T09:32:54.715Z,2.47
2018-09-18T09:35:22.360Z,3.33
2018-09-18T09:37:50.099Z,3.90
2018-09-18T09:40:17.770Z,4.83
2018-09-18T09:42:45.425Z,3.40
2018-09-18T09:45:13.411Z,3.87
2018-09-18T09:47:41.086Z,2.23
2018-09-18T09:50:08.743Z,2.10
2018-09-18T09:52:36.492Z,3.77
2018-09-18T09:55:04.305Z,3.43
2018-09-18T09:57:32.020Z,4.03
2018-09-18T09:59:59.736Z,3.63
2018-09-18T10:02:29.411Z,3.37
2018-09-18T10:04:57.550Z,2.60
2018-09-18T10:07:25.477Z,4.50
2018-09-18T10:09:53.225Z,3.23
2018-09-18T10:12:20.915Z,2.53
2018-09-18T10:14:48.620Z,4.77
2018-09-18T10:17:16.318Z,2.33
2018-09-18T10:19:43.979Z,1.60
2018-09-18T10:22:11.714Z,3.60
2018-09-18T10:24:39.368Z,2.33
2018-09-18T10:27:07.043Z,2.70
2018-09-18T10:29:34.725Z,1.53
2018-09-18T10:32:02.401Z,4.67
2018-09-18T10:34:30.073Z,2.97
2018-09-18T10:36:57.840Z,2.33
2018-09-18T10:39:25.676Z,4.40
2018-09-18T10:41:53.448Z,2.27
2018-09-18T10:44:21.125Z,1.30
2018-09-18T10:46:48.819Z,2.40
2018-09-18T10:49:16.518Z,1.20
2018-09-18T10:51:44.196Z,1.80
2018-09-18T10:54:11.847Z,3.57
2018-09-18T10:56:39.529Z,2.73
2018-09-18T10:59:07.245Z,3.00
2018-09-18T11:01:34.937Z,4.13
2018-09-18T11:04:02.614Z,2.90
2018-09-18T11:06:30.277Z,1.23
2018-09-18T11:08:57.981Z,5.33
2018-09-18T11:11:25.737Z,2.93
2018-09-18T11:13:53.406Z,1.93
2018-09-18T11:16:21.102Z,0.83
2018-09-18T11:18:48.858Z,3.33
2018-09-18T11:21:16.594Z,2.30
2018-09-18T11:23:44.356Z,2.77
2018-09-18T11:26:11.977Z,2.00
2018-09-18T11:28:39.685Z,4.13
2018-09-18T11:31:07.434Z,2.67
2018-09-18T11:33:35.096Z,4.67
2018-09-18T11:36:02.811Z,2.83
2018-09-18T11:38:30.487Z,5.20
2018-09-18T11:40:58.134Z,3.30
2018-09-18T11:43:25.832Z,2.80
2018-09-18T11:45:53.625Z,4.53
2018-09-18T11:48:21.247Z,2.33
2018-09-18T11:50:48.921Z,2.30
2018-09-18T11:53:16.535Z,1.83
2018-09-18T11:55:44.209Z,6.23
2018-09-18T11:58:11.893Z,2.07
2018-09-18T12:00:39.565Z,3.60
2018-09-18T12:03:07.304Z,2.10
2018-09-18T12:05:34.973Z,1.77
2018-09-18T12:08:02.638Z,7.43
2018-09-18T12:10:30.296Z,3.30
2018-09-18T12:12:57.965Z,2.87
2018-09-18T12:15:25.638Z,3.90
2018-09-18T12:17:53.258Z,2.03
2018-09-18T12:20:20.970Z,2.13
2018-09-18T12:22:48.714Z,1.77
2018-09-18T12:25:16.331Z,1.97
2018-09-18T12:27:44.073Z,3.30
2018-09-18T12:30:11.741Z,2.87
2018-09-18T12:32:39.397Z,1.13
2018-09-18T12:35:07.167Z,2.20
2018-09-18T12:37:34.805Z,1.20
2018-09-18T12:40:02.496Z,5.50
2018-09-18T12:42:30.231Z,4.50
2018-09-18T12:44:57.857Z,3.37
2018-09-18T12:47:25.522Z,1.13
2018-09-18T12:49:53.402Z,3.80
2018-09-18T12:52:20.911Z,2.23
2018-09-18T12:54:48.545Z,3.67
2018-09-18T12:57:16.411Z,2.50
2018-09-18T12:59:44.012Z,1.67
2018-09-18T13:02:11.707Z,1.37
2018-09-18T13:04:39.325Z,3.20
2018-09-18T13:07:07.182Z,2.67
2018-09-18T13:09:34.685Z,3.43
2018-09-18T13:12:02.387Z,5.70
2018-09-18T13:14:30.078Z,1.77
2018-09-18T13:16:57.739Z,4.03
2018-09-18T13:19:25.425Z,1.77
2018-09-18T13:21:53.065Z,2.50
2018-09-18T13:24:20.748Z,3.57
2018-09-18T13:26:48.404Z,1.30
2018-09-18T13:29:16.040Z,4.63
2018-09-18T13:31:43.754Z,4.33
2018-09-18T13:34:11.373Z,2.97
2018-09-18T13:36:39.289Z,3.53
2018-09-18T13:39:07.556Z,2.37
2018-09-18T13:41:35.210Z,0.87
2018-09-18T13:44:02.903Z,1.17
2018-09-18T13:46:30.670Z,3.77
2018-09-18T13:48:58.281Z,2.00
2018-09-18T13:51:25.936Z,3.93
2018-09-18T13:53:53.615Z,1.63
2018-09-18T13:56:21.345Z,2.03
2018-09-18T13:58:49.008Z,2.20
2018-09-18T14:01:16.873Z,3.07
2018-09-18T14:03:44.489Z,3.13
2018-09-18T14:06:12.190Z,1.50
2018-09-18T14:08:39.822Z,1.90
2018-09-18T14:11:07.496Z,2.43
2018-09-18T14:13:35.164Z,1.40
2018-09-18T14:16:02.829Z,3.47
2018-09-18T14:18:30.455Z,1.40
2018-09-18T14:20:58.212Z,3.57
2018-09-18T14:23:25.909Z,2.83
2018-09-18T14:25:53.537Z,2.23
2018-09-18T14:28:21.145Z,4.50
2018-09-18T14:30:48.832Z,3.53
2018-09-18T14:33:16.516Z,2.93
2018-09-18T14:35:44.259Z,3.23
2018-09-18T14:38:11.928Z,4.93
2018-09-18T14:40:39.549Z,4.07
2018-09-18T14:43:07.290Z,3.60
2018-09-18T14:45:34.944Z,5.20
2018-09-18T14:48:02.610Z,2.60
2018-09-18T14:50:30.252Z,3.00
2018-09-18T14:52:57.928Z,1.60
2018-09-18T14:55:25.582Z,1.83
2018-09-18T14:57:53.202Z,3.30
2018-09-18T15:00:20.897Z,3.10
2018-09-18T15:02:48.562Z,3.40
2018-09-18T15:05:16.191Z,4.83
2018-09-18T15:07:43.979Z,4.27
2018-09-18T15:10:11.691Z,4.97
2018-09-18T15:12:39.377Z,4.83
2018-09-18T15:15:07.250Z,4.43
2018-09-18T15:17:34.925Z,5.13
2018-09-18T15:20:02.681Z,5.83
2018-09-18T15:22:30.353Z,5.23
2018-09-18T15:24:58.048Z,5.80
2018-09-18T15:27:25.806Z,6.00
2018-09-18T15:29:53.449Z,7.97
2018-09-18T15:32:21.123Z,4.20
2018-09-18T15:34:48.767Z,11.70
2018-09-18T15:37:16.473Z,5.33
2018-09-18T15:39:44.159Z,5.43
2018-09-18T15:42:11.785Z,5.40
2018-09-18T15:44:39.537Z,4.13
2018-09-18T15:47:07.292Z,10.83
2018-09-18T15:49:34.933Z,6.20
2018-09-18T15:52:02.600Z,3.37
2018-09-18T15:54:30.266Z,5.00
2018-09-18T15:56:57.911Z,5.87
2018-09-18T15:59:25.572Z,5.30
2018-09-18T16:01:53.273Z,6.80
2018-09-18T16:04:21.160Z,5.03
2018-09-18T16:06:48.816Z,7.67
2018-09-18T16:09:16.456Z,5.87
2018-09-18T16:11:44.090Z,5.93
2018-09-18T16:14:11.747Z,6.70
2018-09-18T16:16:39.501Z,7.67
2018-09-18T16:19:07.742Z,6.97
2018-09-18T16:21:35.465Z,4.63
2018-09-18T16:24:03.144Z,6.90
2018-09-18T16:26:30.825Z,4.13
2018-09-18T16:28:58.468Z,7.03
2018-09-18T16:31:26.180Z,4.17
2018-09-18T16:33:53.816Z,6.23
2018-09-18T16:36:21.456Z,4.80
2018-09-18T16:38:49.149Z,7.33
2018-09-18T16:41:16.841Z,5.33
2018-09-18T16:43:44.515Z,7.70
2018-09-18T16:46:12.230Z,7.37
2018-09-18T16:48:39.947Z,5.57
2018-09-18T16:51:07.744Z,4.70
2018-09-18T16:53:35.404Z,4.90
2018-09-18T16:56:03.074Z,6.87
2018-09-18T16:58:30.771Z,5.20
2018-09-18T17:00:58.567Z,7.60
2018-09-18T17:03:26.221Z,3.67
2018-09-18T17:05:53.944Z,8.53
2018-09-18T17:08:21.677Z,10.53
2018-09-18T17:10:49.570Z,4.73
2018-09-18T17:13:17.287Z,11.67
2018-09-18T17:15:44.932Z,7.50
2018-09-18T17:18:12.760Z,3.40
2018-09-18T17:20:40.545Z,4.13
2018-09-18T17:23:08.243Z,7.37
2018-09-18T17:25:35.843Z,5.40
2018-09-18T17:28:03.618Z,4.10
2018-09-18T17:30:31.327Z,8.77
2018-09-18T17:32:59.089Z,7.07
2018-09-18T17:35:26.820Z,6.10
2018-09-18T17:37:55.418Z,6.47
2018-09-18T17:40:23.094Z,6.57
2018-09-18T17:42:50.827Z,5.77
2018-09-18T17:45:18.521Z,7.20
2018-09-18T17:47:46.189Z,5.77
2018-09-18T17:50:13.952Z,6.83
2018-09-18T17:52:41.577Z,6.07
2018-09-18T17:55:09.278Z,5.80
2018-09-18T17:57:36.959Z,12.60
2018-09-18T18:00:05.187Z,9.63
2018-09-18T18:02:32.893Z,6.40
2018-09-18T18:05:00.619Z,3.33
2018-09-18T18:07:28.291Z,5.40
2018-09-18T18:09:56.019Z,4.10
2018-09-18T18:12:23.737Z,2.87
2018-09-18T18:14:51.494Z,4.27
2018-09-18T18:17:19.273Z,3.50
2018-09-18T18:19:46.989Z,5.63
2018-09-18T18:22:14.726Z,8.50
2018-09-18T18:24:42.441Z,4.67
2018-09-18T18:27:10.227Z,3.17
2018-09-18T18:29:37.947Z,4.87
2018-09-18T18:32:05.799Z,5.63
2018-09-18T18:34:33.545Z,6.10
2018-09-18T18:37:01.209Z,4.47
2018-09-18T18:39:28.939Z,5.63
2018-09-18T18:41:56.610Z,6.77
2018-09-18T18:44:24.348Z,6.17
2018-09-18T18:46:52.031Z,9.27
2018-09-18T18:49:19.669Z,7.00
2018-09-18T18:51:47.353Z,4.67
2018-09-18T18:54:15.037Z,3.90
2018-09-18T18:56:42.778Z,2.60
2018-09-18T18:59:10.469Z,2.93
2018-09-18T19:01:38.094Z,3.77
2018-09-18T19:04:05.845Z,6.80
2018-09-18T19:06:33.726Z,5.93
2018-09-18T19:09:01.462Z,9.50
2018-09-18T19:11:29.231Z,9.10
2018-09-18T19:13:57.020Z,8.87
2018-09-18T19:16:24.676Z,6.47
2018-09-18T19:18:52.465Z,6.73
2018-09-18T19:21:20.113Z,9.40
2018-09-18T19:23:47.819Z,4.87
2018-09-18T19:26:15.520Z,7.00
2018-09-18T19:28:43.234Z,7.63
2018-09-18T19:31:10.969Z,8.47
2018-09-18T19:33:38.663Z,9.27
2018-09-18T19:36:06.464Z,9.40
2018-09-18T19:38:34.126Z,8.70
2018-09-18T19:41:01.800Z,5.87
2018-09-18T19:43:29.509Z,9.23
2018-09-18T19:45:57.208Z,11.40
2018-09-18T19:48:25.151Z,7.30
2018-09-18T19:50:52.985Z,3.37
2018-09-18T19:53:20.762Z,5.33
2018-09-18T19:55:48.436Z,6.87
2018-09-18T19:58:16.140Z,6.13
2018-09-18T20:00:43.835Z,5.87
2018-09-18T20:03:11.635Z,4.10
2018-09-18T20:05:39.310Z,6.33
2018-09-18T20:08:06.969Z,9.60
2018-09-18T20:10:34.646Z,5.23
2018-09-18T20:13:02.347Z,4.43
2018-09-18T20:15:30.117Z,7.77
2018-09-18T20:17:57.872Z,5.13
2018-09-18T20:20:25.549Z,4.60
2018-09-18T20:22:53.261Z,5.77
2018-09-18T20:25:20.917Z,8.90
2018-09-18T20:27:48.649Z,4.23
2018-09-18T20:30:16.358Z,2.77
2018-09-18T20:32:44.054Z,9.33
2018-09-18T20:35:11.726Z,3.40
2018-09-18T20:37:39.451Z,6.77
2018-09-18T20:40:07.157Z,4.13
2018-09-18T20:42:34.910Z,4.33
2018-09-18T20:45:02.605Z,3.03
2018-09-18T20:47:30.266Z,2.20
2018-09-18T20:49:57.946Z,7.93
2018-09-18T20:52:25.639Z,7.47
2018-09-18T20:54:53.310Z,10.20
2018-09-18T20:57:20.978Z,14.37
2018-09-18T20:59:48.748Z,5.07
2018-09-18T21:02:16.633Z,1.87
2018-09-18T21:04:44.245Z,2.60
2018-09-18T21:07:12.029Z,3.73
2018-09-18T21:09:39.757Z,3.37
2018-09-18T21:12:07.453Z,2.33
2018-09-18T21:14:35.203Z,5.10
2018-09-18T21:17:03.008Z,11.73
2018-09-18T21:19:30.732Z,9.83
2018-09-18T21:21:58.449Z,4.80
2018-09-18T21:24:26.237Z,2.93
2018-09-18T21:26:53.967Z,4.47
2018-09-18T21:29:21.708Z,8.57
2018-09-18T21:31:49.389Z,3.00
2018-09-18T21:34:17.126Z,11.80
2018-09-18T21:36:44.833Z,7.87
2018-09-18T21:39:12.544Z,9.53
2018-09-18T21:41:40.292Z,4.93
2018-09-18T21:44:08.024Z,16.20
2018-09-18T21:46:35.753Z,6.13
2018-09-18T21:49:03.517Z,5.80
2018-09-18T21:51:31.389Z,4.77
2018-09-18T21:53:59.100Z,4.30
2018-09-18T21:56:26.836Z,2.33
2018-09-18T21:58:54.555Z,2.93
2018-09-18T22:01:22.324Z,4.60
2018-09-18T22:03:50.090Z,5.97
2018-09-18T22:06:17.826Z,9.13
2018-09-18T22:08:45.525Z,5.50
2018-09-18T22:11:13.246Z,5.73
2018-09-18T22:13:40.989Z,10.93
2018-09-18T22:16:08.693Z,8.73
2018-09-18T22:18:36.413Z,12.20
2018-09-18T22:21:04.158Z,5.50
2018-09-18T22:23:31.885Z,7.03
2018-09-18T22:25:59.652Z,14.20
2018-09-18T22:28:27.368Z,10.83
2018-09-18T22:30:55.108Z,6.27
2018-09-18T22:33:22.828Z,4.87
2018-09-18T22:35:50.508Z,3.93
2018-09-18T22:38:18.263Z,6.03
2018-09-18T22:40:45.988Z,6.17
2018-09-18T22:43:13.802Z,51.73
2018-09-18T22:45:41.484Z,50.17
2018-09-18T22:48:09.178Z,10.27
2018-09-18T22:50:37.048Z,13.80
2018-09-18T22:53:04.927Z,18.07
2018-09-18T22:55:32.636Z,14.00
2018-09-18T22:58:00.443Z,15.30
2018-09-18T23:00:28.192Z,53.30
2018-09-18T23:02:55.916Z,30.97
2018-09-18T23:05:23.662Z,48.73
2018-09-18T23:07:51.382Z,35.07
2018-09-18T23:10:19.186Z,69.97
2018-09-18T23:12:46.949Z,65.57
2018-09-18T23:15:14.660Z,40.80
2018-09-18T23:17:42.387Z,18.67
2018-09-18T23:20:10.171Z,14.57
2018-09-18T23:22:37.917Z,11.03
2018-09-18T23:25:05.715Z,12.80
2018-09-18T23:27:33.479Z,9.63
2018-09-18T23:30:01.496Z,7.83
2018-09-18T23:32:29.215Z,12.30
2018-09-18T23:34:56.931Z,9.00
2018-09-18T23:37:24.704Z,12.07
2018-09-18T23:39:52.451Z,8.03
2018-09-18T23:42:20.254Z,6.77
2018-09-18T23:44:47.891Z,5.23
2018-09-18T23:47:15.659Z,17.10
2018-09-18T23:49:43.388Z,10.60
2018-09-18T23:52:11.178Z,8.67
2018-09-18T23:54:38.861Z,26.07
2018-09-18T23:57:06.608Z,40.20
2018-09-18T23:59:34.332Z,10.73
